Terminal Aerodrome Forecast
Issued by NWS

Home | Current Version | Previous Version | Graphics & Text | Print | Product List | Glossary On
Versions: 1 2 3 4 5 6 7 8 9 10 11 12 13 14 15 16 17 18
235
FTUS43 KBIS 052320
TAFDIK
TAF
KDIK 052320Z 0600/0624 25009KT P6SM SCT200
     FM060700 25012KT P6SM SCT250 WS020/28040KT
     FM061600 27020G29KT P6SM SCT200 WS020/28050KT
     FM062000 27029G40KT P6SM SCT250=

USA.gov is the U.S. government's official web portal to all federal, state and local government web resources and services.